Time;durP1;ratioP1;P1;durP2;ratioP2;P2;SDS_P1;SDS_P2;PMS_P1;PMS_P2;Temp;Humidity;BMP_temperature;BMP_pressure;BME280_temperature;BME280_humidity;BME280_pressure;Samples;Min_cycle;Max_cycle;Signal;HPM_P1;HPM_P2
2022/02/12 00:00:36;;;;;;;23.30;10.77;;;;;;;;;;5070815;28;20185;-70
2022/02/12 00:03:01;;;;;;;17.93;10.27;;;;;;;;;;5070968;28;20204;-71
2022/02/12 00:05:26;;;;;;;18.00;10.93;;;;;;;;;;5051351;28;20271;-70
2022/02/12 00:07:55;;;;;;;20.13;10.83;;;;;;;;;;5070991;28;20192;-70
2022/02/12 00:10:22;;;;;;;18.90;11.30;;;;;;;;;;5070515;28;20181;-70
2022/02/12 00:12:47;;;;;;;21.20;10.77;;;;;;;;;;5071550;28;20169;-69
2022/02/12 00:15:12;;;;;;;16.13;10.50;;;;;;;;;;5069776;28;20498;-72
2022/02/12 00:17:38;;;;;;;20.67;11.33;;;;;;;;;;5070349;28;20215;-73
2022/02/12 00:20:04;;;;;;;19.20;11.83;;;;;;;;;;5070162;28;20238;-70
2022/02/12 00:22:29;;;;;;;18.67;10.53;;;;;;;;;;5070631;28;20206;-69
2022/02/12 00:24:54;;;;;;;16.40;11.90;;;;;;;;;;5068365;28;20264;-72
2022/02/12 00:27:19;;;;;;;17.33;10.70;;;;;;;;;;5070241;28;20201;-69
2022/02/12 00:29:45;;;;;;;30.00;13.20;;;;;;;;;;5070084;28;20264;-70
2022/02/12 00:32:10;;;;;;;21.63;11.27;;;;;;;;;;5070085;28;20181;-69
2022/02/12 00:34:35;;;;;;;20.67;10.07;;;;;;;;;;5067896;28;20252;-72
2022/02/12 00:37:01;;;;;;;20.33;10.50;;;;;;;;;;5068684;28;20205;-69
2022/02/12 00:39:26;;;;;;;18.10;9.20;;;;;;;;;;5070001;28;20272;-70
2022/02/12 00:41:51;;;;;;;17.37;9.20;;;;;;;;;;5068608;28;20234;-69
2022/02/12 00:44:16;;;;;;;18.70;10.07;;;;;;;;;;5069494;28;20649;-69
2022/02/12 00:46:41;;;;;;;18.97;10.80;;;;;;;;;;5067266;28;20205;-70
2022/02/12 00:49:07;;;;;;;20.63;10.10;;;;;;;;;;5051896;28;20256;-71
2022/02/12 00:51:33;;;;;;;14.53;9.77;;;;;;;;;;5069984;28;20185;-69
2022/02/12 00:53:58;;;;;;;16.97;10.67;;;;;;;;;;5069607;28;20259;-70
2022/02/12 00:56:23;;;;;;;19.70;10.30;;;;;;;;;;5069355;28;20283;-70
2022/02/12 00:58:48;;;;;;;16.60;9.80;;;;;;;;;;5069290;28;20185;-71
2022/02/12 01:01:14;;;;;;;24.47;10.33;;;;;;;;;;5069300;28;20256;-70
2022/02/12 01:03:39;;;;;;;25.83;10.20;;;;;;;;;;5071534;28;20715;-70
2022/02/12 01:06:04;;;;;;;18.43;9.97;;;;;;;;;;5076308;28;20177;-72
2022/02/12 01:08:29;;;;;;;26.70;10.60;;;;;;;;;;5075874;28;20610;-71
2022/02/12 01:10:55;;;;;;;15.50;9.07;;;;;;;;;;5070550;28;20176;-70
2022/02/12 01:13:20;;;;;;;22.00;9.17;;;;;;;;;;5070513;28;20180;-70
2022/02/12 01:15:45;;;;;;;14.87;8.73;;;;;;;;;;5069386;28;20181;-70
2022/02/12 01:18:11;;;;;;;16.37;9.00;;;;;;;;;;5069517;28;20221;-70
2022/02/12 01:20:37;;;;;;;18.37;9.13;;;;;;;;;;5067715;28;20173;-71
2022/02/12 01:23:02;;;;;;;17.10;8.83;;;;;;;;;;5066438;28;20206;-70
2022/02/12 01:25:28;;;;;;;23.30;9.73;;;;;;;;;;5067638;28;20175;-70
2022/02/12 01:27:53;;;;;;;18.30;8.60;;;;;;;;;;5069184;28;20555;-70
2022/02/12 01:30:18;;;;;;;16.73;9.37;;;;;;;;;;5067924;28;20177;-70
2022/02/12 01:32:43;;;;;;;19.60;9.43;;;;;;;;;;5069961;28;20217;-69
2022/02/12 01:35:10;;;;;;;21.70;9.40;;;;;;;;;;5066302;28;20192;-70
2022/02/12 01:37:35;;;;;;;19.47;8.93;;;;;;;;;;5068544;28;20208;-72
2022/02/12 01:40:00;;;;;;;26.80;10.40;;;;;;;;;;5068084;28;20185;-70
2022/02/12 01:42:28;;;;;;;16.17;8.90;;;;;;;;;;5067048;28;20193;-70
2022/02/12 01:44:53;;;;;;;19.03;9.70;;;;;;;;;;5067479;28;20238;-70
2022/02/12 01:47:18;;;;;;;18.07;9.53;;;;;;;;;;5069170;28;20332;-70
2022/02/12 01:49:43;;;;;;;22.33;9.93;;;;;;;;;;5068511;28;20203;-70
2022/02/12 01:52:10;;;;;;;17.97;9.17;;;;;;;;;;5069249;28;20169;-70
2022/02/12 01:54:35;;;;;;;24.43;10.33;;;;;;;;;;5051368;28;20672;-70
2022/02/12 01:57:02;;;;;;;17.40;8.77;;;;;;;;;;5068905;28;20244;-70
2022/02/12 01:59:27;;;;;;;14.30;9.60;;;;;;;;;;5067954;28;20275;-70
2022/02/12 02:01:52;;;;;;;25.23;11.57;;;;;;;;;;5066979;28;20355;-70
2022/02/12 02:04:18;;;;;;;17.53;10.33;;;;;;;;;;5067379;28;20219;-70
2022/02/12 02:06:44;;;;;;;19.90;11.10;;;;;;;;;;5068738;28;20196;-70
2022/02/12 02:09:09;;;;;;;23.37;11.87;;;;;;;;;;5067880;28;20173;-70
2022/02/12 02:11:35;;;;;;;20.87;12.43;;;;;;;;;;5068344;28;20179;-70
2022/02/12 02:14:00;;;;;;;15.90;11.43;;;;;;;;;;5067408;28;20187;-70
2022/02/12 02:18:56;;;;;;;20.27;11.33;;;;;;;;;;5044890;28;20291;-69
2022/02/12 02:21:22;;;;;;;24.00;10.60;;;;;;;;;;5044949;28;20186;-69
2022/02/12 02:23:47;;;;;;;23.17;10.80;;;;;;;;;;5043569;28;20301;-69
2022/02/12 02:26:13;;;;;;;19.03;10.53;;;;;;;;;;5045706;28;20181;-68
2022/02/12 02:28:38;;;;;;;18.23;9.63;;;;;;;;;;5036911;28;20789;-69
2022/02/12 02:31:03;;;;;;;20.10;9.90;;;;;;;;;;5037537;28;20180;-69
2022/02/12 02:33:28;;;;;;;21.63;10.53;;;;;;;;;;5044848;28;20228;-69
2022/02/12 02:35:54;;;;;;;17.27;10.40;;;;;;;;;;5046796;28;20188;-69
2022/02/12 02:38:19;;;;;;;19.57;10.87;;;;;;;;;;5045872;28;20232;-68
2022/02/12 02:40:47;;;;;;;20.17;10.23;;;;;;;;;;5036403;28;20556;-67
2022/02/12 02:43:12;;;;;;;24.43;10.43;;;;;;;;;;5049715;28;20239;-67
2022/02/12 02:45:38;;;;;;;33.83;10.93;;;;;;;;;;5049869;28;20177;-67
2022/02/12 02:48:04;;;;;;;21.70;10.53;;;;;;;;;;5056746;28;20227;-67
2022/02/12 02:56:05;;;;;;;21.33;10.93;;;;;;;;;;5044292;28;20243;-66
2022/02/12 02:58:36;;;;;;;22.67;9.90;;;;;;;;;;5043746;28;20200;-68
2022/02/12 03:01:02;;;;;;;23.07;11.13;;;;;;;;;;5044062;28;20182;-68
2022/02/12 03:03:27;;;;;;;18.60;10.57;;;;;;;;;;5046774;28;20239;-68
2022/02/12 03:05:52;;;;;;;21.17;10.27;;;;;;;;;;5044780;28;20569;-68
2022/02/12 03:08:17;;;;;;;19.23;9.57;;;;;;;;;;5042981;28;20194;-68
2022/02/12 03:10:42;;;;;;;19.80;9.90;;;;;;;;;;5046147;28;20557;-70
2022/02/12 03:13:08;;;;;;;23.43;9.80;;;;;;;;;;5042252;28;20178;-67
2022/02/12 03:15:36;;;;;;;21.40;9.20;;;;;;;;;;5051400;28;20675;-70
2022/02/12 03:18:01;;;;;;;15.33;9.37;;;;;;;;;;5043251;28;20225;-68
2022/02/12 03:20:26;;;;;;;23.53;9.23;;;;;;;;;;5051803;28;20567;-67
2022/02/12 03:22:51;;;;;;;18.37;9.43;;;;;;;;;;5045079;28;20206;-68
2022/02/12 03:25:17;;;;;;;14.27;9.00;;;;;;;;;;5047713;28;20178;-67
2022/02/12 03:27:42;;;;;;;20.43;8.20;;;;;;;;;;5052337;28;20186;-68
2022/02/12 03:30:07;;;;;;;16.80;8.53;;;;;;;;;;5046351;28;20181;-67
2022/02/12 03:32:32;;;;;;;21.17;9.30;;;;;;;;;;5050847;28;20186;-68
2022/02/12 03:34:57;;;;;;;16.10;7.70;;;;;;;;;;5047688;28;20200;-68
2022/02/12 03:37:26;;;;;;;14.00;8.23;;;;;;;;;;5045147;28;20263;-68
2022/02/12 03:39:51;;;;;;;15.27;7.70;;;;;;;;;;5047337;28;20663;-68
2022/02/12 03:42:16;;;;;;;15.40;8.40;;;;;;;;;;5045746;28;20182;-68
2022/02/12 03:44:43;;;;;;;22.17;7.20;;;;;;;;;;5054849;28;20185;-69
2022/02/12 03:47:08;;;;;;;16.83;7.77;;;;;;;;;;5047389;28;20585;-68
2022/02/12 03:49:33;;;;;;;13.07;6.67;;;;;;;;;;5045144;28;20185;-68
2022/02/12 03:51:58;;;;;;;12.80;7.30;;;;;;;;;;5058810;28;20183;-68
2022/02/12 03:54:23;;;;;;;21.87;6.73;;;;;;;;;;5049526;28;20182;-68
2022/02/12 03:56:48;;;;;;;12.07;6.97;;;;;;;;;;5059335;28;20239;-68
2022/02/12 03:59:14;;;;;;;21.20;6.83;;;;;;;;;;5041479;28;20199;-69
2022/02/12 04:01:39;;;;;;;16.90;7.67;;;;;;;;;;5041321;28;20254;-68
2022/02/12 04:04:04;;;;;;;19.70;7.27;;;;;;;;;;5038114;28;20208;-68
2022/02/12 04:06:29;;;;;;;16.73;7.60;;;;;;;;;;5043199;28;20174;-68
2022/02/12 04:08:54;;;;;;;17.60;7.77;;;;;;;;;;5039919;28;20174;-68
2022/02/12 04:11:21;;;;;;;15.17;7.10;;;;;;;;;;5045091;28;20201;-68
2022/02/12 04:13:47;;;;;;;18.63;7.53;;;;;;;;;;5042380;28;20269;-68
2022/02/12 04:16:12;;;;;;;15.13;6.33;;;;;;;;;;5053716;28;20273;-68
2022/02/12 04:18:37;;;;;;;18.37;6.60;;;;;;;;;;5044583;28;20208;-68
2022/02/12 04:21:03;;;;;;;13.47;6.67;;;;;;;;;;5042801;28;20189;-69
2022/02/12 04:23:28;;;;;;;16.27;6.53;;;;;;;;;;5048983;28;20213;-68
2022/02/12 04:25:53;;;;;;;12.60;6.40;;;;;;;;;;5039386;28;20656;-68
2022/02/12 04:28:19;;;;;;;11.47;7.00;;;;;;;;;;5045131;28;20204;-68
2022/02/12 04:30:44;;;;;;;18.90;5.83;;;;;;;;;;5045530;28;20287;-68
2022/02/12 04:33:10;;;;;;;10.80;6.23;;;;;;;;;;5043665;28;20169;-69
2022/02/12 04:35:36;;;;;;;16.43;6.83;;;;;;;;;;5046701;28;20173;-68
2022/02/12 04:38:02;;;;;;;16.23;7.13;;;;;;;;;;5046723;28;20209;-69
2022/02/12 04:40:27;;;;;;;14.80;6.60;;;;;;;;;;5041906;28;20678;-68
2022/02/12 04:42:52;;;;;;;13.50;5.90;;;;;;;;;;5046239;28;20198;-68
2022/02/12 04:45:17;;;;;;;16.27;6.27;;;;;;;;;;5049578;28;20181;-68
2022/02/12 04:47:43;;;;;;;18.00;6.77;;;;;;;;;;5049487;28;20288;-69
2022/02/12 04:50:09;;;;;;;9.93;5.70;;;;;;;;;;5044580;28;20174;-69
2022/02/12 04:52:35;;;;;;;24.80;6.53;;;;;;;;;;5047792;28;20178;-69
2022/02/12 04:55:00;;;;;;;14.93;7.17;;;;;;;;;;5044452;28;20183;-69
2022/02/12 04:57:25;;;;;;;14.43;6.77;;;;;;;;;;5052282;28;20209;-70
2022/02/12 04:59:50;;;;;;;20.23;6.50;;;;;;;;;;5050289;28;20656;-68
2022/02/12 05:02:15;;;;;;;14.50;6.83;;;;;;;;;;5054872;28;20274;-68
2022/02/12 05:04:41;;;;;;;14.93;6.23;;;;;;;;;;5050941;28;20619;-68
2022/02/12 05:07:06;;;;;;;15.17;6.13;;;;;;;;;;5060459;28;20208;-68
2022/02/12 05:09:34;;;;;;;16.70;6.17;;;;;;;;;;5039233;28;20175;-68
2022/02/12 05:12:00;;;;;;;12.57;6.40;;;;;;;;;;5062633;28;20177;-68
2022/02/12 05:14:29;;;;;;;15.43;6.23;;;;;;;;;;5047524;28;20682;-68
2022/02/12 05:16:54;;;;;;;14.90;6.20;;;;;;;;;;5047230;28;20582;-68
2022/02/12 05:19:20;;;;;;;17.97;6.53;;;;;;;;;;5047942;28;20181;-68
2022/02/12 05:21:45;;;;;;;13.50;6.27;;;;;;;;;;5045400;28;20181;-67
2022/02/12 05:24:10;;;;;;;12.57;6.70;;;;;;;;;;5059634;28;20220;-68
2022/02/12 05:26:35;;;;;;;15.43;6.27;;;;;;;;;;5046403;28;20173;-67
2022/02/12 05:29:00;;;;;;;13.40;6.60;;;;;;;;;;5046474;28;20182;-68
2022/02/12 05:31:26;;;;;;;18.40;7.40;;;;;;;;;;5047220;28;20242;-68
2022/02/12 05:33:51;;;;;;;18.93;6.13;;;;;;;;;;5046868;28;20208;-69
2022/02/12 05:36:16;;;;;;;17.30;7.30;;;;;;;;;;5048992;28;20563;-68
2022/02/12 05:38:41;;;;;;;12.93;6.73;;;;;;;;;;5045217;28;20197;-68
2022/02/12 05:41:07;;;;;;;14.00;6.60;;;;;;;;;;5045150;28;20182;-69
2022/02/12 05:43:33;;;;;;;14.37;5.73;;;;;;;;;;5049593;28;20289;-68
2022/02/12 05:45:58;;;;;;;14.30;6.13;;;;;;;;;;5047159;28;20189;-68
2022/02/12 05:48:24;;;;;;;15.70;6.87;;;;;;;;;;5050430;28;20205;-68
2022/02/12 05:50:49;;;;;;;16.10;7.07;;;;;;;;;;5043194;28;20174;-69
2022/02/12 05:53:14;;;;;;;13.17;5.97;;;;;;;;;;5048356;28;20679;-68
2022/02/12 05:55:39;;;;;;;16.87;6.80;;;;;;;;;;5041155;28;20193;-68
2022/02/12 05:58:04;;;;;;;18.97;7.50;;;;;;;;;;5046253;28;20739;-68
2022/02/12 06:00:30;;;;;;;16.60;6.90;;;;;;;;;;5037571;28;20170;-69
2022/02/12 06:02:55;;;;;;;16.40;7.50;;;;;;;;;;5039050;28;20291;-69
2022/02/12 06:05:20;;;;;;;14.80;6.77;;;;;;;;;;5039630;28;20193;-69
2022/02/12 06:07:46;;;;;;;15.20;7.23;;;;;;;;;;5042589;28;20566;-69
2022/02/12 06:10:11;;;;;;;14.33;6.60;;;;;;;;;;5040512;28;20208;-69
2022/02/12 06:12:36;;;;;;;16.27;7.40;;;;;;;;;;5055164;28;20180;-69
2022/02/12 06:15:01;;;;;;;17.30;6.33;;;;;;;;;;5034789;28;20179;-69
2022/02/12 06:17:27;;;;;;;12.80;6.43;;;;;;;;;;5050380;28;20204;-69
2022/02/12 06:19:52;;;;;;;15.63;7.40;;;;;;;;;;5038188;28;20652;-69
2022/02/12 06:22:17;;;;;;;18.77;7.17;;;;;;;;;;5043215;28;20176;-69
2022/02/12 06:24:43;;;;;;;19.30;8.00;;;;;;;;;;5043817;28;20205;-69
2022/02/12 06:27:08;;;;;;;15.33;7.90;;;;;;;;;;5042954;28;20209;-69
2022/02/12 06:29:33;;;;;;;20.00;6.70;;;;;;;;;;5044409;28;20182;-68
2022/02/12 06:31:59;;;;;;;18.03;7.50;;;;;;;;;;5046132;28;20236;-67
2022/02/12 06:34:24;;;;;;;13.83;7.37;;;;;;;;;;5042543;28;20178;-67
2022/02/12 06:36:49;;;;;;;16.93;8.10;;;;;;;;;;5052962;28;20193;-70
2022/02/12 06:39:14;;;;;;;17.67;7.40;;;;;;;;;;5041579;28;20190;-70
2022/02/12 06:41:39;;;;;;;20.20;9.07;;;;;;;;;;5039993;28;20189;-70
2022/02/12 06:44:05;;;;;;;16.90;9.60;;;;;;;;;;5044895;28;20213;-68
2022/02/12 06:46:30;;;;;;;14.87;9.03;;;;;;;;;;5056117;28;20180;-68
2022/02/12 06:48:55;;;;;;;18.13;8.43;;;;;;;;;;5052727;28;20580;-69
2022/02/12 06:51:21;;;;;;;21.40;8.53;;;;;;;;;;5045935;28;20241;-69
2022/02/12 06:53:46;;;;;;;18.93;8.13;;;;;;;;;;5052960;28;20178;-68
2022/02/12 06:56:11;;;;;;;23.13;8.40;;;;;;;;;;5055723;28;20220;-69
2022/02/12 06:58:36;;;;;;;15.87;7.93;;;;;;;;;;5049505;28;20216;-69
2022/02/12 07:01:02;;;;;;;15.97;8.20;;;;;;;;;;5037490;28;20182;-68
2022/02/12 07:03:27;;;;;;;17.73;7.70;;;;;;;;;;5047336;28;20194;-69
2022/02/12 07:05:52;;;;;;;17.30;7.70;;;;;;;;;;5049960;28;21751;-69
2022/02/12 07:08:18;;;;;;;14.40;7.20;;;;;;;;;;5056617;28;20570;-69
2022/02/12 07:10:43;;;;;;;13.60;8.00;;;;;;;;;;5052444;28;20178;-69
2022/02/12 07:13:08;;;;;;;19.37;8.33;;;;;;;;;;5053630;28;20177;-69
2022/02/12 07:15:33;;;;;;;19.53;8.43;;;;;;;;;;5049590;28;20233;-68
2022/02/12 07:17:58;;;;;;;17.80;8.27;;;;;;;;;;5052075;28;20209;-68
2022/02/12 07:20:24;;;;;;;20.27;9.13;;;;;;;;;;5049408;28;20277;-68
2022/02/12 07:22:49;;;;;;;16.47;8.70;;;;;;;;;;5048517;28;20284;-68
2022/02/12 07:25:15;;;;;;;18.10;8.67;;;;;;;;;;5038447;28;20656;-68
2022/02/12 07:27:40;;;;;;;21.90;8.63;;;;;;;;;;5037084;28;20190;-70
2022/02/12 07:30:15;;;;;;;18.00;9.50;;;;;;;;;;5044280;28;20212;-71
2022/02/12 07:32:41;;;;;;;17.77;9.73;;;;;;;;;;5057848;28;20168;-68
2022/02/12 07:35:07;;;;;;;16.67;8.63;;;;;;;;;;5053515;28;20228;-68
2022/02/12 07:37:32;;;;;;;18.37;8.70;;;;;;;;;;5052759;28;20729;-69
2022/02/12 07:39:58;;;;;;;17.20;8.27;;;;;;;;;;5067576;28;20169;-69
2022/02/12 07:42:23;;;;;;;15.10;8.93;;;;;;;;;;5066601;28;20201;-68
2022/02/12 07:44:48;;;;;;;15.60;8.70;;;;;;;;;;5059449;28;20173;-68
2022/02/12 07:47:13;;;;;;;21.73;8.17;;;;;;;;;;5063033;28;20617;-68
2022/02/12 07:49:39;;;;;;;17.63;8.73;;;;;;;;;;5057169;28;20176;-68
2022/02/12 07:52:04;;;;;;;18.57;8.70;;;;;;;;;;5043429;28;20185;-69
2022/02/12 07:54:29;;;;;;;19.77;8.40;;;;;;;;;;5058094;28;20173;-68
2022/02/12 07:56:56;;;;;;;14.70;9.10;;;;;;;;;;5061909;28;20202;-69
2022/02/12 07:59:22;;;;;;;20.00;9.37;;;;;;;;;;5064548;28;20188;-68
2022/02/12 08:01:48;;;;;;;19.33;9.40;;;;;;;;;;5047430;28;20605;-69
2022/02/12 08:04:13;;;;;;;16.07;9.03;;;;;;;;;;5055785;28;20201;-68
2022/02/12 08:09:21;;;;;;;21.40;9.43;;;;;;;;;;5054213;28;20189;-68
2022/02/12 08:12:10;;;;;;;12.93;10.37;;;;;;;;;;5053021;28;20264;-69
2022/02/12 08:14:32;;;;;;;11.53;8.50;;;;;;;;;;5057508;28;20191;-67
2022/02/12 08:17:01;;;;;;;18.43;8.37;;;;;;;;;;5062666;28;20201;-71
2022/02/12 08:19:26;;;;;;;13.67;8.10;;;;;;;;;;5041190;28;20872;-73
2022/02/12 08:21:51;;;;;;;20.67;9.17;;;;;;;;;;5046426;28;20186;-69
2022/02/12 08:24:17;;;;;;;14.17;8.73;;;;;;;;;;5048115;28;20210;-69
2022/02/12 08:26:42;;;;;;;17.83;7.67;;;;;;;;;;5045621;28;20619;-69
2022/02/12 08:29:07;;;;;;;13.50;7.10;;;;;;;;;;5069020;28;20208;-70
2022/02/12 08:31:32;;;;;;;19.00;7.60;;;;;;;;;;5059712;28;20269;-70
2022/02/12 08:33:57;;;;;;;18.43;7.73;;;;;;;;;;5070932;28;20189;-70
2022/02/12 08:36:23;;;;;;;12.33;7.10;;;;;;;;;;5064041;28;20688;-70
2022/02/12 08:38:48;;;;;;;15.43;7.33;;;;;;;;;;5066181;28;20202;-71
2022/02/12 08:41:13;;;;;;;13.30;6.13;;;;;;;;;;5053026;28;20603;-70
2022/02/12 08:43:38;;;;;;;15.27;6.93;;;;;;;;;;5066476;28;20280;-70
2022/02/12 08:46:03;;;;;;;14.93;6.17;;;;;;;;;;5067836;28;20267;-70
2022/02/12 08:48:31;;;;;;;15.53;6.87;;;;;;;;;;5068183;28;20184;-70
2022/02/12 08:50:56;;;;;;;11.87;5.77;;;;;;;;;;5052855;28;20539;-70
2022/02/12 08:53:21;;;;;;;9.93;5.80;;;;;;;;;;5071593;28;20363;-70
2022/02/12 08:55:46;;;;;;;12.43;6.33;;;;;;;;;;5068520;28;20180;-70
2022/02/12 08:58:11;;;;;;;10.10;5.80;;;;;;;;;;5064001;28;20561;-70
2022/02/12 09:00:37;;;;;;;10.10;5.67;;;;;;;;;;5068538;28;20180;-72
2022/02/12 09:03:02;;;;;;;14.17;5.80;;;;;;;;;;5051972;28;20334;-70
2022/02/12 09:05:27;;;;;;;10.53;5.50;;;;;;;;;;5048674;28;20677;-71
2022/02/12 09:07:52;;;;;;;13.20;5.20;;;;;;;;;;5065653;28;20197;-69
2022/02/12 09:10:17;;;;;;;12.23;5.90;;;;;;;;;;5064951;28;20227;-71
2022/02/12 09:12:43;;;;;;;11.33;5.80;;;;;;;;;;5071346;28;20230;-70
2022/02/12 09:15:08;;;;;;;9.47;5.40;;;;;;;;;;5070136;28;20177;-70
2022/02/12 09:17:33;;;;;;;8.60;4.70;;;;;;;;;;5068351;28;20212;-69
2022/02/12 09:19:58;;;;;;;11.40;5.23;;;;;;;;;;5071324;28;20196;-70
2022/02/12 09:22:24;;;;;;;10.67;5.77;;;;;;;;;;5068155;28;20173;-69
2022/02/12 09:24:49;;;;;;;12.77;5.70;;;;;;;;;;5067353;28;20240;-70
2022/02/12 09:27:16;;;;;;;13.80;5.20;;;;;;;;;;5052221;28;20238;-69
2022/02/12 09:29:42;;;;;;;11.13;5.27;;;;;;;;;;5069606;28;20207;-68
2022/02/12 09:32:07;;;;;;;9.47;5.20;;;;;;;;;;5067854;28;20386;-70
2022/02/12 09:34:32;;;;;;;10.80;5.63;;;;;;;;;;5065771;28;20436;-69
2022/02/12 09:36:57;;;;;;;11.40;5.33;;;;;;;;;;5050093;28;20173;-71
2022/02/12 09:39:22;;;;;;;11.87;4.97;;;;;;;;;;5064248;28;20455;-69
2022/02/12 09:41:47;;;;;;;8.00;4.80;;;;;;;;;;5070600;28;20169;-72
2022/02/12 09:44:13;;;;;;;13.70;4.90;;;;;;;;;;5075749;28;20200;-70
2022/02/12 09:46:47;;;;;;;10.80;5.57;;;;;;;;;;5086742;28;20169;-72
2022/02/12 09:49:13;;;;;;;13.60;4.77;;;;;;;;;;5070949;28;20270;-68
2022/02/12 09:51:40;;;;;;;9.03;4.77;;;;;;;;;;5070783;28;20173;-69
2022/02/12 09:54:05;;;;;;;10.67;4.90;;;;;;;;;;5052482;28;20180;-71
2022/02/12 09:56:30;;;;;;;9.83;5.50;;;;;;;;;;5070440;28;20723;-71
2022/02/12 09:58:55;;;;;;;8.90;4.30;;;;;;;;;;5070170;28;20563;-71
2022/02/12 10:01:20;;;;;;;6.57;4.17;;;;;;;;;;5069832;28;20642;-71
2022/02/12 10:03:46;;;;;;;10.97;4.47;;;;;;;;;;5069218;28;20200;-70
2022/02/12 10:06:12;;;;;;;12.80;4.30;;;;;;;;;;5070065;28;20185;-72
2022/02/12 10:08:39;;;;;;;13.67;5.53;;;;;;;;;;5069810;28;20192;-72
2022/02/12 10:11:15;;;;;;;9.03;4.17;;;;;;;;;;5069541;28;20293;-72
2022/02/12 10:13:41;;;;;;;10.07;3.77;;;;;;;;;;5064111;28;20172;-69
2022/02/12 10:16:06;;;;;;;10.00;5.17;;;;;;;;;;5069852;28;20188;-72
2022/02/12 10:18:40;;;;;;;13.23;4.70;;;;;;;;;;5069283;28;20278;-69
2022/02/12 10:21:06;;;;;;;7.90;3.90;;;;;;;;;;5052427;28;20184;-69
2022/02/12 10:23:32;;;;;;;11.43;4.37;;;;;;;;;;5067891;28;20207;-69
2022/02/12 10:26:03;;;;;;;6.70;4.30;;;;;;;;;;5066883;28;20184;-69
2022/02/12 10:28:29;;;;;;;9.10;3.87;;;;;;;;;;5072080;28;20204;-71
2022/02/12 10:30:55;;;;;;;9.67;4.17;;;;;;;;;;5068225;28;20269;-71
2022/02/12 10:33:20;;;;;;;9.93;4.87;;;;;;;;;;5068313;28;20177;-72
2022/02/12 10:35:54;;;;;;;10.53;4.50;;;;;;;;;;5072679;28;20196;-71
2022/02/12 10:38:20;;;;;;;10.40;3.80;;;;;;;;;;5068438;28;20207;-70
2022/02/12 10:41:03;;;;;;;6.97;3.67;;;;;;;;;;5066707;28;20308;-70
2022/02/12 10:43:28;;;;;;;7.37;3.67;;;;;;;;;;5070619;28;20712;-72
2022/02/12 10:45:53;;;;;;;11.63;4.70;;;;;;;;;;5074013;28;20173;-70
2022/02/12 10:48:19;;;;;;;5.97;3.87;;;;;;;;;;5072894;28;20299;-71
2022/02/12 10:50:44;;;;;;;8.80;3.90;;;;;;;;;;5073915;28;20219;-70
2022/02/12 10:53:09;;;;;;;9.13;4.03;;;;;;;;;;5071687;28;20184;-71
2022/02/12 10:55:37;;;;;;;15.10;5.53;;;;;;;;;;5071707;28;20184;-71
2022/02/12 10:58:13;;;;;;;9.17;4.33;;;;;;;;;;5073018;28;20212;-71
2022/02/12 11:00:39;;;;;;;11.10;4.30;;;;;;;;;;5066832;28;20172;-71
2022/02/12 11:03:08;;;;;;;9.00;4.60;;;;;;;;;;5072504;28;20196;-70
2022/02/12 11:05:35;;;;;;;10.47;4.67;;;;;;;;;;5061121;28;20172;-70
2022/02/12 11:08:01;;;;;;;9.17;4.87;;;;;;;;;;5072878;28;20682;-70
2022/02/12 11:10:26;;;;;;;8.40;4.00;;;;;;;;;;5069002;28;20177;-70
2022/02/12 11:12:52;;;;;;;12.67;3.73;;;;;;;;;;5073006;28;20169;-72
2022/02/12 11:15:17;;;;;;;8.43;4.40;;;;;;;;;;5069616;28;20702;-70
2022/02/12 11:17:43;;;;;;;9.53;4.23;;;;;;;;;;5072778;28;20278;-71
2022/02/12 11:20:11;;;;;;;8.53;3.83;;;;;;;;;;5072630;28;20235;-70
2022/02/12 11:22:37;;;;;;;7.93;4.07;;;;;;;;;;5072086;28;20173;-71
2022/02/12 11:25:02;;;;;;;7.30;3.93;;;;;;;;;;5072491;28;20169;-70
2022/02/12 11:27:31;;;;;;;11.73;4.07;;;;;;;;;;5071719;28;20188;-70
2022/02/12 11:30:14;;;;;;;11.83;3.50;;;;;;;;;;5072048;28;20169;-71
2022/02/12 11:32:43;;;;;;;8.53;4.07;;;;;;;;;;5070429;28;20183;-71
2022/02/12 11:35:11;;;;;;;7.07;3.63;;;;;;;;;;5071914;28;20197;-70
2022/02/12 11:37:38;;;;;;;6.67;3.37;;;;;;;;;;5072199;28;20254;-70
2022/02/12 11:40:13;;;;;;;6.97;3.53;;;;;;;;;;5072173;28;20173;-70
2022/02/12 11:42:44;;;;;;;7.93;3.23;;;;;;;;;;5064274;28;20176;-71
2022/02/12 11:45:21;;;;;;;7.03;3.23;;;;;;;;;;5065033;28;20260;-70
2022/02/12 11:48:19;;;;;;;10.87;4.50;;;;;;;;;;5071540;28;20574;-71
2022/02/12 11:50:52;;;;;;;8.43;3.23;;;;;;;;;;5032975;28;20184;-70
2022/02/12 11:53:36;;;;;;;8.27;3.27;;;;;;;;;;5070731;28;20212;-70
2022/02/12 11:56:06;;;;;;;10.23;3.80;;;;;;;;;;5065394;28;20265;-70
2022/02/12 11:58:40;;;;;;;9.57;3.67;;;;;;;;;;5069789;28;20710;-70
2022/02/12 12:01:06;;;;;;;8.03;3.80;;;;;;;;;;5070471;28;20180;-70
2022/02/12 12:03:31;;;;;;;8.17;3.37;;;;;;;;;;5071051;28;20615;-70
2022/02/12 12:06:14;;;;;;;6.23;3.13;;;;;;;;;;5070331;28;20702;-69
2022/02/12 12:09:00;;;;;;;9.87;3.40;;;;;;;;;;5066683;28;20189;-71
2022/02/12 12:11:25;;;;;;;9.40;4.30;;;;;;;;;;5070585;28;20212;-70
2022/02/12 12:13:50;;;;;;;8.17;3.93;;;;;;;;;;5070893;28;20256;-70
2022/02/12 12:16:22;;;;;;;9.53;3.47;;;;;;;;;;5071208;28;20184;-69
2022/02/12 12:18:47;;;;;;;5.80;2.90;;;;;;;;;;5052119;28;20206;-70
2022/02/12 12:21:13;;;;;;;8.53;3.73;;;;;;;;;;5070919;28;20210;-70
2022/02/12 12:23:39;;;;;;;7.77;3.23;;;;;;;;;;5070644;28;20212;-71
2022/02/12 12:26:05;;;;;;;8.47;3.50;;;;;;;;;;5070910;28;20177;-71
2022/02/12 12:28:31;;;;;;;10.57;3.67;;;;;;;;;;5052718;28;20242;-69
2022/02/12 12:30:57;;;;;;;9.60;3.00;;;;;;;;;;5072566;28;20173;-70
2022/02/12 12:33:28;;;;;;;9.03;3.70;;;;;;;;;;5086938;28;20195;-72
2022/02/12 12:35:54;;;;;;;6.73;3.60;;;;;;;;;;5071882;28;20671;-70
2022/02/12 12:38:20;;;;;;;9.57;3.00;;;;;;;;;;5071370;28;20205;-70
2022/02/12 12:40:46;;;;;;;9.37;4.00;;;;;;;;;;5068483;28;20214;-69
2022/02/12 12:43:13;;;;;;;8.13;3.60;;;;;;;;;;5068150;28;20603;-69
2022/02/12 12:45:45;;;;;;;7.17;3.40;;;;;;;;;;5065396;28;20559;-70
2022/02/12 12:48:11;;;;;;;15.77;5.77;;;;;;;;;;5067495;28;20223;-69
2022/02/12 12:50:37;;;;;;;14.33;3.97;;;;;;;;;;5069669;28;20173;-70
2022/02/12 12:53:06;;;;;;;10.00;4.27;;;;;;;;;;5070542;28;20254;-69
2022/02/12 12:55:31;;;;;;;7.33;3.70;;;;;;;;;;5064233;28;20520;-70
2022/02/12 12:57:57;;;;;;;9.77;3.40;;;;;;;;;;5070400;28;20208;-71
2022/02/12 13:00:24;;;;;;;8.57;3.60;;;;;;;;;;5061916;28;20251;-69
2022/02/12 13:02:51;;;;;;;5.90;3.30;;;;;;;;;;5049014;28;20185;-69
2022/02/12 13:05:22;;;;;;;8.57;3.57;;;;;;;;;;5070165;28;20177;-69
2022/02/12 13:07:49;;;;;;;8.67;3.17;;;;;;;;;;5051280;28;20228;-70
2022/02/12 13:10:14;;;;;;;5.53;3.00;;;;;;;;;;5067516;28;20256;-70
2022/02/12 13:12:40;;;;;;;11.27;4.43;;;;;;;;;;5067090;28;20312;-70
2022/02/12 13:15:09;;;;;;;6.93;3.87;;;;;;;;;;5065345;28;20214;-69
2022/02/12 13:17:41;;;;;;;7.77;3.27;;;;;;;;;;5069236;28;20212;-70
2022/02/12 13:20:07;;;;;;;10.37;3.67;;;;;;;;;;5068207;28;20181;-71
2022/02/12 13:22:33;;;;;;;9.07;2.70;;;;;;;;;;5067319;28;20169;-69
2022/02/12 13:24:59;;;;;;;9.30;3.47;;;;;;;;;;5052864;28;20299;-70
2022/02/12 13:27:26;;;;;;;9.03;3.67;;;;;;;;;;5063602;28;20284;-70
2022/02/12 13:30:00;;;;;;;5.10;2.97;;;;;;;;;;5066798;28;20173;-70
2022/02/12 13:32:35;;;;;;;9.03;3.33;;;;;;;;;;5063566;28;20172;-70
2022/02/12 13:35:02;;;;;;;13.33;3.50;;;;;;;;;;5070361;28;20188;-70
2022/02/12 13:37:33;;;;;;;9.10;3.43;;;;;;;;;;5070276;28;20220;-70
2022/02/12 13:39:59;;;;;;;5.80;3.20;;;;;;;;;;5066014;28;20203;-70
2022/02/12 13:42:24;;;;;;;5.53;2.90;;;;;;;;;;5067521;28;20646;-70
2022/02/12 13:44:57;;;;;;;9.67;3.43;;;;;;;;;;5064271;28;20209;-69
2022/02/12 13:47:22;;;;;;;7.07;3.80;;;;;;;;;;5070319;28;20574;-70
2022/02/12 13:49:47;;;;;;;4.20;3.33;;;;;;;;;;5064102;28;20180;-69
2022/02/12 13:52:17;;;;;;;6.33;3.00;;;;;;;;;;5066739;28;20235;-70
2022/02/12 13:54:42;;;;;;;7.97;3.33;;;;;;;;;;5070041;28;20164;-69
2022/02/12 13:57:07;;;;;;;7.57;2.80;;;;;;;;;;5069416;28;20180;-70
2022/02/12 13:59:32;;;;;;;8.27;3.00;;;;;;;;;;5070335;28;20187;-69
2022/02/12 14:01:58;;;;;;;6.83;2.80;;;;;;;;;;5070214;28;20645;-69
2022/02/12 14:04:25;;;;;;;8.73;3.37;;;;;;;;;;5069755;28;20319;-69
2022/02/12 14:06:50;;;;;;;7.93;2.77;;;;;;;;;;5052254;28;20654;-70
2022/02/12 14:09:17;;;;;;;6.23;3.13;;;;;;;;;;5070440;28;20197;-71
2022/02/12 14:11:43;;;;;;;7.53;3.73;;;;;;;;;;5063912;28;20181;-70
2022/02/12 14:14:10;;;;;;;5.33;2.60;;;;;;;;;;5069471;28;20234;-69
2022/02/12 14:16:36;;;;;;;6.10;3.53;;;;;;;;;;5056189;28;20649;-69
2022/02/12 14:19:01;;;;;;;6.30;3.20;;;;;;;;;;5069999;28;20243;-67
2022/02/12 14:21:26;;;;;;;7.23;3.03;;;;;;;;;;5048100;28;20212;-68
2022/02/12 14:23:51;;;;;;;7.13;2.97;;;;;;;;;;5049785;28;20196;-67
2022/02/12 14:26:17;;;;;;;5.83;2.90;;;;;;;;;;5069390;28;20181;-67
2022/02/12 14:28:42;;;;;;;4.83;2.90;;;;;;;;;;5068670;28;20898;-67
2022/02/12 14:31:07;;;;;;;11.80;3.07;;;;;;;;;;5069672;28;20562;-67
2022/02/12 14:33:34;;;;;;;7.70;3.20;;;;;;;;;;5069707;28;20680;-68
2022/02/12 14:36:01;;;;;;;10.63;2.63;;;;;;;;;;5051824;28;20306;-67